Hualapai Flat, Nevada Weather observations

Data are for 10 minute period ending at time listed.
 Day   Time   Solar   Ave.   Ave.  Ave.  Vector  Max.   Baro.   Total    
  of    of     Rad.   Air    Rel.  Wind   Wind   Wind  Press.  Precip.   
Year   Day            Temp.  Hum.  Speed  Dir.   Gust                    
2014   (PST)  Kw/m2    F      %     mph   deg.    mph    mb.     in.     
-------------------------------------------------------------------------
 112    0:00   0.00  99999.0    33    6.3   288    11.5   869.9    0.00 
 112    0:10   0.00  99999.0    34    5.6   276     7.8   869.7    0.00 
 112    0:20   0.00  99999.0    38    4.6   312     6.6   869.2    0.00 
 112    0:30   0.00  99999.0    38    5.3   314    11.3   869.0    0.00 
 112    0:40   0.00  99999.0    38    4.3   304     8.8   869.1    0.00 
 112    0:50   0.00  99999.0    42    4.9   238    15.3   869.1    0.00 
 112    1:00   0.00  99999.0    38   11.4   241    19.9   869.0    0.00 
 112    1:10   0.00  99999.0    39   10.1   245    17.5   868.9    0.00 
 112    1:20   0.00  99999.0    37   10.2   243    17.3   868.9    0.00 
 112    1:30   0.00  99999.0    40   10.1   240    18.2   868.7    0.00 
 112    1:40   0.00  99999.0    40   11.4   243    21.3   868.5    0.00 
 112    1:50   0.00  99999.0    41   11.9   235    19.1   868.4    0.00 
 112    2:00   0.00  99999.0    43   10.1   229    18.1   868.4    0.00 
 112    2:10   0.00  99999.0    42   13.7   238    24.8   868.2    0.00 
 112    2:20   0.00  99999.0    41   14.3   233    20.9   868.1    0.00 
 112    2:30   0.00  99999.0    40   17.5   234    26.2   868.1    0.00 
 112    2:40   0.00  99999.0    40   18.3   234    30.0   868.1    0.00 
 112    2:50   0.00  99999.0    40   18.0   233    26.2   868.2    0.00 
 112    3:00   0.00  99999.0    41   14.0   237    24.4   868.4    0.00 
 112    3:10   0.00  99999.0    42   13.1   248    20.9   868.6    0.00 
 112    3:20   0.00  99999.0    43   11.3   253    19.0   868.5    0.00 
 112    3:30   0.00  99999.0    43    9.8   254    18.3   868.4    0.00 
 112    3:40   0.00  99999.0    39   13.3   240    20.6   868.3    0.00 
 112    3:50   0.00  99999.0    38   12.2   250    20.2   868.4    0.00 
 112    4:00   0.00  99999.0    38   15.2   254    23.3   868.3    0.00 
 112    4:10   0.00  99999.0    39   15.9   237    24.3   868.1    0.00 
 112    4:20   0.00  99999.0    39   16.7   234    27.1   867.8    0.00 
 112    4:30   0.00  99999.0    41   16.3   222    27.9   867.8    0.00 
 112    4:40   0.00  99999.0    41   13.7   222    22.8   867.7    0.00 
 112    4:50   0.00  99999.0    40   14.1   226    19.1   867.6    0.00 
 112    5:00   0.00  99999.0    40   13.6   223    21.7   867.7    0.00 
 112    5:10   0.00  99999.0    42    9.3   211    17.4   867.8    0.00 
 112    5:20   0.00  99999.0    44    9.9   212    17.2   867.7    0.00 
 112    5:30   0.01  99999.0    47    7.6   190    20.5   867.4    0.00 
 112    5:40   0.01  99999.0    51    4.5    60     6.7   867.5    0.00 
 112    5:50   0.02  99999.0    53    4.4   344    11.7   868.1    0.00 
 112    6:00   0.03  99999.0    46    7.5   206    15.6   868.1    0.00 
 112    6:10   0.03  99999.0    47    5.5   237    13.0   867.9    0.00 
 112    6:20   0.03  99999.0    50    6.8   239    13.9   868.2    0.00 
 112    6:30   0.03  99999.0    49    8.5   246    13.6   868.3    0.00 
 112    6:40   0.02  99999.0    47   11.0   267    18.9   868.4    0.00 
 112    6:50   0.02  99999.0    55   12.1   269    21.1   868.4    0.00 
 112    7:00   0.02  99999.0    61    9.7   251    14.1   868.4    0.00 
 112    7:10   0.04  99999.0    60    9.0   260    16.9   868.4    0.00 
 112    7:20   0.05  99999.0    60    6.1   266     9.1   868.5    0.00 
 112    7:30   0.08  99999.0    57    4.7   298     7.7   868.6    0.00 
 112    7:40   0.20  99999.0    55    5.5   313     9.5   868.4    0.00 
 112    7:50   0.45  99999.0    52    6.3   307    10.9   868.3    0.00 
 112    8:00   0.56  99999.0    49    8.9   292    16.9   868.5    0.00 
 112    8:10   0.16  99999.0    48    9.5   280    15.1   868.8    0.00 
 112    8:20   0.15  99999.0    48    7.7   288    11.8   868.9    0.00 
 112    8:30   0.20  99999.0    47    8.1   282    14.8   868.9    0.00 
 112    8:40   0.21  99999.0    46    7.8   280    14.1   868.8    0.00 
 112    8:50   0.33  99999.0    42    8.8   279    17.5   868.8    0.00 
 112    9:00   0.35  99999.0    42   12.5   264    19.4   868.7    0.00 
 112    9:10   0.70  99999.0    44   13.6   253    18.0   868.7    0.00 
 112    9:20   0.72  99999.0    42   14.2   261    20.9   868.6    0.00 
 112    9:30   0.55  99999.0    46   13.4   292    22.5   868.7    0.00 
 112    9:40   0.20  99999.0    51   14.4   326    20.7   869.0    0.00 
 112    9:50   0.21  99999.0    53   13.4   331    19.9   869.1    0.00 
 112   10:00   0.22  99999.0    51   13.8   331    19.0   869.0    0.00 
 112   10:10   0.43  99999.0    49   13.3   331    19.0   869.1    0.00 
 112   10:20   0.46  99999.0    45   13.3   307    21.0   869.2    0.00 
 112   10:30   0.40  99999.0    44   13.1   272    18.8   869.4    0.00 
 112   10:40   0.31  99999.0    43   12.4   305    19.7   869.5    0.00 
 112   10:50   0.27  99999.0    46   11.2   330    18.2   869.7    0.00 
 112   11:00   0.27  99999.0    44   12.1   300    20.4   869.8    0.00 
 112   11:10   0.33  99999.0    48   13.8   332    21.2   869.8    0.00 
 112   11:20   0.36  99999.0    45   11.7   320    18.0   869.8    0.00 
 112   11:30   0.32  99999.0    46   15.8   324    24.3   869.9    0.00 
 112   11:40   0.44  99999.0    46   16.4   327    25.4   869.8    0.00 
 112   11:50   0.37  99999.0    43   15.6   316    25.9   870.0    0.00 
 112   12:00   0.73  99999.0    40   15.3   309    28.9   870.1    0.00 
 112   12:10   0.73  99999.0    39   15.8   306    23.8   870.1    0.00 
 112   12:20   0.78  99999.0    38   19.4   312    27.1   870.2    0.00 
 112   12:30   0.93  99999.0    34   16.8   288    31.0   870.2    0.00 
 112   12:40   1.06  99999.0    35   20.4   270    31.9   870.2    0.00 
 112   12:50   1.10  99999.0    34   17.6   272    26.6   870.4    0.00 
 112   13:00   1.05  99999.0    31   18.8   276    28.2   870.4    0.00 
 112   13:10   1.04  99999.0    33   16.7   275    26.7   870.6    0.00 
 112   13:20   0.96  99999.0    31   16.7   280    28.0   870.6    0.00 
 112   13:30   0.93  99999.0    29   17.9   288    26.5   870.6    0.00 
 112   13:40   0.93  99999.0    30   18.5   279    26.5   870.6    0.00 
 112   13:50   0.76  99999.0    29   15.7   292    28.4   870.6    0.00 
 112   14:00   0.83  99999.0    27   19.8   289    29.4   870.6    0.00 
 112   14:10   0.81  99999.0    28   18.5   284    29.3   870.6    0.00 
 112   14:20   0.80  99999.0    29   15.5   278    26.9   870.6    0.00 
 112   14:30   0.81  99999.0    27   16.3   284    23.5   870.6    0.00 
 112   14:40   0.76  99999.0    29   19.8   274    28.9   870.6    0.00 
 112   14:50   0.76  99999.0    33   19.5   264    32.2   870.6    0.00 
 112   15:00   0.72  99999.0    26   18.2   279    27.6   870.6    0.00 
 112   15:10   0.73  99999.0    24   18.3   284    29.1   870.8    0.00 
 112   15:20   0.57  99999.0    25   17.3   289    26.4   871.0    0.00 
 112   15:30   0.71  99999.0    25   18.8   279    27.2   871.0    0.00 
 112   15:40   0.65  99999.0    26   17.9   282    25.6   871.2    0.00 
 112   15:50   0.55  99999.0    26   17.4   286    24.6   871.3    0.00 
 112   16:00   0.51  99999.0    28   19.4   277    28.1   871.4    0.00 
 112   16:10   0.47  99999.0    30   15.6   272    22.9   871.4    0.00 
 112   16:20   0.43  99999.0    30   13.4   272    21.6   871.4    0.00 
 112   16:30   0.40  99999.0    31   15.9   271    22.6   871.4    0.00 
 112   16:40   0.38  99999.0    27   17.2   279    28.5   871.6    0.00 
 112   16:50   0.34  99999.0    31   20.7   284    26.7   871.8    0.00 
 112   17:00   0.30  99999.0    33   19.3   277    26.8   872.0    0.00 
 112   17:10   0.27  99999.0    32   18.6   282    28.8   872.1    0.00 
 112   17:20   0.23  99999.0    34   16.4   283    24.5   872.2    0.00 
 112   17:30   0.20  99999.0    34   15.7   294    22.1   872.2    0.00 
 112   17:40   0.17  99999.0    33   14.9   282    20.5   872.3    0.00 
 112   17:50   0.11  99999.0    32   15.7   284    22.1   872.3    0.00 
 112   18:00   0.02  99999.0    34   12.9   284    18.9   872.4    0.00 
 112   18:10   0.02  99999.0    34   14.1   282    21.4   872.4    0.00 
 112   18:20   0.02  99999.0    36   14.8   283    22.6   872.4    0.00 
 112   18:30   0.01  99999.0    42   14.5   274    20.8   872.5    0.00 
 112   18:40   0.01  99999.0    54   13.2   262    22.9   872.5    0.00 
 112   18:50   0.00  99999.0    53   10.3   259    15.3   872.7    0.00 
 112   19:00   0.00  99999.0    47    9.3   269    13.4   872.8    0.00 
 112   19:10   0.00  99999.0    44   11.8   274    18.0   872.8    0.00 
 112   19:20   0.00  99999.0    44   13.1   274    18.2   872.9    0.00 
 112   19:30   0.00  99999.0    46   12.5   272    18.2   873.1    0.00 
 112   19:40   0.00  99999.0    44   13.2   279    19.4   873.2    0.00 
 112   19:50   0.00  99999.0    44   14.0   280    19.9   873.4    0.00 
 112   20:00   0.00  99999.0    44   14.8   279    21.4   873.6    0.00 
 112   20:10   0.00  99999.0    45   14.6   282    23.2   873.8    0.00 
 112   20:20   0.00  99999.0    48   15.7   291    22.6   874.1    0.00 
 112   20:30   0.00  99999.0    58   14.6   288    19.5   874.2    0.00 
 112   20:40   0.00  99999.0    61   14.1   287    22.8   874.2    0.00 
 112   20:50   0.00  99999.0    61   14.6   285    23.6   874.2    0.00 
 112   21:00   0.00  99999.0    60   15.7   284    23.4   874.2    0.00 
 112   21:10   0.00  99999.0    60   13.9   283    21.6   874.2    0.00 
 112   21:20   0.00  99999.0    58   13.1   283    20.4   874.2    0.00 
 112   21:30   0.00  99999.0    59   13.3   294    19.2   874.3    0.00 
 112   21:40   0.00  99999.0    59   12.9   307    20.2   874.2    0.00 
 112   21:50   0.00  99999.0    59   12.3   292    17.9   874.2    0.00 
 112   22:00   0.00  99999.0    58   11.9   312    16.1   874.2    0.00 
 112   22:10   0.00  99999.0    58    8.6   328    15.6   874.2    0.00 
 112   22:20   0.00  99999.0    59    8.1   325    19.0   874.2    0.00 
 112   22:30   0.00  99999.0    55    7.4   319    17.6   874.3    0.00 
 112   22:40   0.00  99999.0    52    8.7   300    20.4   874.5    0.00 
 112   22:50   0.00  99999.0    54    9.5   284    16.3   874.5    0.00 
 112   23:00   0.00  99999.0    56    7.5   269    11.0   874.7    0.00 
 112   23:10   0.00  99999.0    57    8.6   269    13.7   874.8    0.00 
 112   23:20   0.00  99999.0    55    8.6   275    12.5   874.8    0.00 

Return to Hualapai Flat graphs page.


Western Regional Climate Center,wrcc@dri.edu